LRC654 MGGT-KIAD
Flight info
| Callsign | LRC654 |
|---|---|
| Flight time | N/A |
| Altitude | 33000 |
| Route | TIKIS2A TIKIS UG765 CZM UB881 CUN DCT ROTGI UM219 MYDIA M219 CIGAR M215 KNOST Q109 CAMJO Q99 SHIRY DCT TRSSK CAVLR6 |
| Aircraft | A20N/M-SDE2E3FGHIRWXY/LB1 |
Departure
| Time | 2026-05-05 01:55 |
|---|---|
| Airport | La Aurora International Airport (MGGT) |
Arrival
| Time | N/A |
|---|---|
| Airport | Washington Dulles International Airport (KIAD) |
| Time | Latitude | Longitude | Altitude | Speed | Heading |
|---|---|---|---|---|---|
| 2026-05-05 01:38 | 14.58968 | -90.52853 | 4957 ft | 0 kts | 287° |
| 2026-05-05 01:45 | 14.58965 | -90.52842 | 4957 ft | 2 kts | 287° |
| 2026-05-05 01:45 | 14.58960 | -90.52827 | 4957 ft | 2 kts | 287° |
| 2026-05-05 01:46 | 14.58956 | -90.52812 | 4957 ft | 2 kts | 287° |
| 2026-05-05 01:46 | 14.58952 | -90.52801 | 4957 ft | 0 kts | 287° |
| 2026-05-05 01:46 | 14.58949 | -90.52788 | 4957 ft | 2 kts | 268° |
| 2026-05-05 01:46 | 14.58952 | -90.52773 | 4957 ft | 2 kts | 249° |
| 2026-05-05 01:47 | 14.58959 | -90.52760 | 4957 ft | 2 kts | 227° |
| 2026-05-05 01:47 | 14.58971 | -90.52750 | 4957 ft | 2 kts | 206° |
| 2026-05-05 01:47 | 14.58978 | -90.52747 | 4957 ft | 1 kts | 195° |
| 2026-05-05 01:47 | 14.58983 | -90.52746 | 4957 ft | 0 kts | 196° |
| 2026-05-05 01:49 | 14.58975 | -90.52748 | 4957 ft | 4 kts | 198° |
| 2026-05-05 01:49 | 14.58912 | -90.52769 | 4957 ft | 13 kts | 197° |
| 2026-05-05 01:49 | 14.58837 | -90.52781 | 4957 ft | 4 kts | 172° |
| 2026-05-05 01:49 | 14.58822 | -90.52779 | 4957 ft | 4 kts | 168° |
| 2026-05-05 01:50 | 14.58787 | -90.52726 | 4957 ft | 13 kts | 108° |
| 2026-05-05 01:50 | 14.58718 | -90.52690 | 4958 ft | 13 kts | 199° |
| 2026-05-05 01:50 | 14.58626 | -90.52720 | 4958 ft | 13 kts | 197° |
| 2026-05-05 01:50 | 14.58528 | -90.52751 | 4958 ft | 17 kts | 197° |
| 2026-05-05 01:51 | 14.58399 | -90.52793 | 4958 ft | 21 kts | 197° |
| 2026-05-05 01:51 | 14.58254 | -90.52840 | 4958 ft | 21 kts | 197° |
| 2026-05-05 01:51 | 14.58117 | -90.52884 | 4958 ft | 20 kts | 198° |
| 2026-05-05 01:51 | 14.57987 | -90.52926 | 4959 ft | 19 kts | 197° |
| 2026-05-05 01:52 | 14.57863 | -90.52966 | 4959 ft | 18 kts | 197° |
| 2026-05-05 01:52 | 14.57741 | -90.53005 | 4959 ft | 17 kts | 197° |
| 2026-05-05 01:52 | 14.57625 | -90.53042 | 4959 ft | 17 kts | 197° |
| 2026-05-05 01:52 | 14.57513 | -90.53078 | 4960 ft | 16 kts | 197° |
| 2026-05-05 01:53 | 14.57402 | -90.53114 | 4960 ft | 16 kts | 197° |
| 2026-05-05 01:53 | 14.57296 | -90.53148 | 4960 ft | 15 kts | 197° |
| 2026-05-05 01:53 | 14.57190 | -90.53181 | 4960 ft | 15 kts | 197° |
| 2026-05-05 01:53 | 14.57086 | -90.53204 | 4960 ft | 14 kts | 166° |
| 2026-05-05 01:54 | 14.57106 | -90.53140 | 4960 ft | 15 kts | 17° |
| 2026-05-05 01:54 | 14.57425 | -90.53038 | 4960 ft | 89 kts | 17° |
| 2026-05-05 01:54 | 14.58266 | -90.52768 | 4958 ft | 161 kts | 18° |
| 2026-05-05 01:54 | 14.59464 | -90.52380 | 5348 ft | 187 kts | 17° |
| 2026-05-05 01:55 | 14.60718 | -90.51964 | 6144 ft | 193 kts | 15° |
| 2026-05-05 01:55 | 14.62040 | -90.51839 | 6968 ft | 194 kts | 350° |
| 2026-05-05 01:55 | 14.63340 | -90.52171 | 7577 ft | 197 kts | 341° |
| 2026-05-05 01:55 | 14.64727 | -90.52583 | 7985 ft | 214 kts | 346° |
| 2026-05-05 01:56 | 14.66250 | -90.52834 | 8393 ft | 231 kts | 353° |
| 2026-05-05 01:56 | 14.67933 | -90.52880 | 8712 ft | 254 kts | 2° |
| 2026-05-05 01:56 | 14.69762 | -90.52670 | 9131 ft | 273 kts | 8° |
| 2026-05-05 01:56 | 14.71715 | -90.52311 | 9597 ft | 291 kts | 13° |
| 2026-05-05 01:57 | 14.73671 | -90.51605 | 10163 ft | 303 kts | 26° |
| 2026-05-05 01:57 | 14.75589 | -90.50542 | 10629 ft | 319 kts | 30° |
| 2026-05-05 01:57 | 14.77576 | -90.49357 | 11028 ft | 336 kts | 30° |
| 2026-05-05 01:57 | 14.79633 | -90.48127 | 11385 ft | 352 kts | 30° |
| 2026-05-05 01:58 | 14.81836 | -90.46817 | 11734 ft | 369 kts | 30° |
| 2026-05-05 01:58 | 14.84094 | -90.45486 | 12281 ft | 376 kts | 30° |
| 2026-05-05 01:58 | 14.86383 | -90.44144 | 12966 ft | 379 kts | 30° |
| 2026-05-05 01:58 | 14.88700 | -90.42789 | 13650 ft | 383 kts | 30° |
| 2026-05-05 01:59 | 14.91028 | -90.41426 | 14289 ft | 386 kts | 30° |
| 2026-05-05 01:59 | 14.93399 | -90.40037 | 14933 ft | 391 kts | 30° |
| 2026-05-05 01:59 | 14.95764 | -90.38650 | 15602 ft | 395 kts | 30° |
| 2026-05-05 01:59 | 14.98169 | -90.37261 | 16269 ft | 397 kts | 29° |
| 2026-05-05 02:00 | 15.00639 | -90.35860 | 16905 ft | 402 kts | 28° |
| 2026-05-05 02:00 | 15.03102 | -90.34467 | 17522 ft | 406 kts | 29° |
| 2026-05-05 02:00 | 15.05565 | -90.33074 | 18126 ft | 408 kts | 29° |
| 2026-05-05 02:00 | 15.08092 | -90.31644 | 18717 ft | 412 kts | 29° |
| 2026-05-05 02:01 | 15.10626 | -90.30208 | 19299 ft | 416 kts | 29° |
| 2026-05-05 02:01 | 15.13205 | -90.28746 | 19875 ft | 419 kts | 29° |
| 2026-05-05 02:01 | 15.15776 | -90.27287 | 20433 ft | 423 kts | 29° |
| 2026-05-05 02:01 | 15.18353 | -90.25827 | 20972 ft | 425 kts | 29° |
| 2026-05-05 02:02 | 15.20967 | -90.24344 | 21452 ft | 428 kts | 29° |
| 2026-05-05 02:02 | 15.23577 | -90.22862 | 21908 ft | 431 kts | 29° |
| 2026-05-05 02:02 | 15.26200 | -90.21373 | 22363 ft | 435 kts | 29° |
| 2026-05-05 02:02 | 15.28899 | -90.19843 | 22857 ft | 438 kts | 29° |
| 2026-05-05 02:03 | 15.31569 | -90.18328 | 23343 ft | 441 kts | 29° |
| 2026-05-05 02:03 | 15.34261 | -90.16799 | 23814 ft | 443 kts | 29° |
| 2026-05-05 02:03 | 15.36972 | -90.15259 | 24245 ft | 446 kts | 29° |
| 2026-05-05 02:03 | 15.39707 | -90.13705 | 24669 ft | 450 kts | 29° |
| 2026-05-05 02:04 | 15.42495 | -90.12119 | 25099 ft | 453 kts | 29° |
| 2026-05-05 02:04 | 15.45265 | -90.10544 | 25509 ft | 455 kts | 29° |
| 2026-05-05 02:04 | 15.48015 | -90.08978 | 25890 ft | 457 kts | 29° |
| 2026-05-05 02:04 | 15.50841 | -90.07368 | 26263 ft | 460 kts | 29° |
| 2026-05-05 02:05 | 15.53671 | -90.05757 | 26631 ft | 463 kts | 29° |
| 2026-05-05 02:05 | 15.56483 | -90.04155 | 26986 ft | 466 kts | 29° |
| 2026-05-05 02:05 | 15.59351 | -90.02520 | 27333 ft | 468 kts | 29° |
| 2026-05-05 02:05 | 15.62202 | -90.00895 | 27654 ft | 470 kts | 29° |
| 2026-05-05 02:06 | 15.65084 | -89.99249 | 27952 ft | 472 kts | 29° |
| 2026-05-05 02:06 | 15.67987 | -89.97591 | 28253 ft | 475 kts | 29° |
| 2026-05-05 02:06 | 15.70895 | -89.95931 | 28579 ft | 476 kts | 29° |
| 2026-05-05 02:06 | 15.73784 | -89.94280 | 28997 ft | 474 kts | 29° |
| 2026-05-05 02:07 | 15.76672 | -89.92632 | 29408 ft | 473 kts | 29° |
| 2026-05-05 02:07 | 15.79534 | -89.90995 | 29787 ft | 472 kts | 29° |
| 2026-05-05 02:07 | 15.82444 | -89.89332 | 30174 ft | 472 kts | 29° |
| 2026-05-05 02:07 | 15.85294 | -89.87702 | 30559 ft | 471 kts | 29° |
| 2026-05-05 02:08 | 15.88168 | -89.86058 | 30941 ft | 470 kts | 29° |
| 2026-05-05 02:08 | 15.91062 | -89.84403 | 31307 ft | 468 kts | 29° |
| 2026-05-05 02:08 | 15.93900 | -89.82780 | 31634 ft | 468 kts | 29° |
| 2026-05-05 02:08 | 15.96767 | -89.81138 | 31971 ft | 468 kts | 29° |
| 2026-05-05 02:09 | 15.99601 | -89.79514 | 32307 ft | 467 kts | 29° |
| 2026-05-05 02:09 | 16.02453 | -89.77880 | 32645 ft | 466 kts | 29° |
| 2026-05-05 02:09 | 16.05302 | -89.76247 | 32894 ft | 466 kts | 29° |
| 2026-05-05 02:09 | 16.08172 | -89.74602 | 32912 ft | 466 kts | 29° |
| 2026-05-05 02:10 | 16.12890 | -89.71897 | 32919 ft | 465 kts | 29° |
| 2026-05-05 02:10 | 16.19528 | -89.68088 | 32925 ft | 465 kts | 29° |
| 2026-05-05 02:11 | 16.25198 | -89.64833 | 32929 ft | 465 kts | 29° |
| 2026-05-05 02:11 | 16.30905 | -89.61553 | 32931 ft | 465 kts | 29° |
| 2026-05-05 02:12 | 16.39393 | -89.56672 | 32932 ft | 465 kts | 29° |
| 2026-05-05 02:13 | 16.45076 | -89.53400 | 32931 ft | 465 kts | 29° |
| 2026-05-05 02:13 | 16.50745 | -89.50136 | 32931 ft | 465 kts | 29° |
| 2026-05-05 02:14 | 16.56413 | -89.46872 | 32931 ft | 465 kts | 29° |
| 2026-05-05 02:14 | 16.62072 | -89.43610 | 32932 ft | 465 kts | 29° |
| 2026-05-05 02:15 | 16.67775 | -89.40320 | 32933 ft | 465 kts | 29° |
| 2026-05-05 02:15 | 16.73427 | -89.37055 | 32933 ft | 465 kts | 29° |
| 2026-05-05 02:16 | 16.79150 | -89.33749 | 32933 ft | 465 kts | 29° |
| 2026-05-05 02:16 | 16.84846 | -89.30461 | 32930 ft | 465 kts | 29° |
| 2026-05-05 02:17 | 16.90516 | -89.27183 | 32926 ft | 465 kts | 29° |
| 2026-05-05 02:17 | 16.96196 | -89.23893 | 32921 ft | 465 kts | 29° |